sensor_id;sensor_type;location;lat;lon;timestamp;temperature;humidity
1429;DHT22;708;51.442;7.016;2023-03-20T00:01:58;11.90;1.00
1429;DHT22;708;51.442;7.016;2023-03-20T00:04:24;11.90;1.00
1429;DHT22;708;51.442;7.016;2023-03-20T00:06:51;11.80;19.20
1429;DHT22;708;51.442;7.016;2023-03-20T00:09:18;11.80;37.30
1429;DHT22;708;51.442;7.016;2023-03-20T00:11:47;11.80;7.60
1429;DHT22;708;51.442;7.016;2023-03-20T00:14:17;11.80;1.00
1429;DHT22;708;51.442;7.016;2023-03-20T00:16:47;11.70;1.00
1429;DHT22;708;51.442;7.016;2023-03-20T00:19:16;11.70;1.00
1429;DHT22;708;51.442;7.016;2023-03-20T00:21:44;11.70;1.00
1429;DHT22;708;51.442;7.016;2023-03-20T00:24:13;11.70;43.20
1429;DHT22;708;51.442;7.016;2023-03-20T00:26:40;11.70;77.80
1429;DHT22;708;51.442;7.016;2023-03-20T00:29:16;11.70;95.70
1429;DHT22;708;51.442;7.016;2023-03-20T00:31:45;11.70;99.90
1429;DHT22;708;51.442;7.016;2023-03-20T00:34:14;11.70;39.00
1429;DHT22;708;51.442;7.016;2023-03-20T00:36:42;11.80;17.70
1429;DHT22;708;51.442;7.016;2023-03-20T00:39:09;11.80;1.00
1429;DHT22;708;51.442;7.016;2023-03-20T00:41:42;11.80;1.00
1429;DHT22;708;51.442;7.016;2023-03-20T00:44:22;11.80;1.00
1429;DHT22;708;51.442;7.016;2023-03-20T00:46:53;11.90;1.00
1429;DHT22;708;51.442;7.016;2023-03-20T00:49:22;11.80;1.00
1429;DHT22;708;51.442;7.016;2023-03-20T00:51:50;11.80;99.90
1429;DHT22;708;51.442;7.016;2023-03-20T00:54:17;11.80;99.90
1429;DHT22;708;51.442;7.016;2023-03-20T00:56:46;11.80;99.90
1429;DHT22;708;51.442;7.016;2023-03-20T00:59:17;11.70;99.90
1429;DHT22;708;51.442;7.016;2023-03-20T01:01:46;11.70;1.00
1429;DHT22;708;51.442;7.016;2023-03-20T01:04:14;11.70;1.00
1429;DHT22;708;51.442;7.016;2023-03-20T01:06:42;11.70;1.00
1429;DHT22;708;51.442;7.016;2023-03-20T01:09:08;11.70;1.00
1429;DHT22;708;51.442;7.016;2023-03-20T01:11:36;11.70;1.00
1429;DHT22;708;51.442;7.016;2023-03-20T01:14:04;11.70;6.70
1429;DHT22;708;51.442;7.016;2023-03-20T01:16:32;11.70;59.60
1429;DHT22;708;51.442;7.016;2023-03-20T01:19:00;11.70;61.10
1429;DHT22;708;51.442;7.016;2023-03-20T01:21:26;11.70;5.00
1429;DHT22;708;51.442;7.016;2023-03-20T01:23:53;11.70;1.00
1429;DHT22;708;51.442;7.016;2023-03-20T01:26:23;11.70;1.00
1429;DHT22;708;51.442;7.016;2023-03-20T01:28:50;11.60;1.00
1429;DHT22;708;51.442;7.016;2023-03-20T01:31:17;11.60;1.00
1429;DHT22;708;51.442;7.016;2023-03-20T01:33:45;11.60;1.00
1429;DHT22;708;51.442;7.016;2023-03-20T01:36:14;11.60;1.00
1429;DHT22;708;51.442;7.016;2023-03-20T01:38:43;11.50;1.00
1429;DHT22;708;51.442;7.016;2023-03-20T01:41:12;11.50;1.00
1429;DHT22;708;51.442;7.016;2023-03-20T01:43:41;11.50;1.00
1429;DHT22;708;51.442;7.016;2023-03-20T01:46:18;11.50;1.00
1429;DHT22;708;51.442;7.016;2023-03-20T01:49:08;11.40;1.00
1429;DHT22;708;51.442;7.016;2023-03-20T01:51:56;11.30;1.00
1429;DHT22;708;51.442;7.016;2023-03-20T01:54:26;11.30;3.50
1429;DHT22;708;51.442;7.016;2023-03-20T01:56:57;11.30;1.00
1429;DHT22;708;51.442;7.016;2023-03-20T01:59:29;11.30;1.00
1429;DHT22;708;51.442;7.016;2023-03-20T02:01:57;11.30;1.00
1429;DHT22;708;51.442;7.016;2023-03-20T02:04:28;11.40;99.90
1429;DHT22;708;51.442;7.016;2023-03-20T02:06:58;11.30;99.90
1429;DHT22;708;51.442;7.016;2023-03-20T02:09:25;11.30;99.90
1429;DHT22;708;51.442;7.016;2023-03-20T02:11:52;11.20;99.90
1429;DHT22;708;51.442;7.016;2023-03-20T02:14:20;11.20;1.00
1429;DHT22;708;51.442;7.016;2023-03-20T02:16:47;11.20;1.00
1429;DHT22;708;51.442;7.016;2023-03-20T02:19:21;11.10;1.00
1429;DHT22;708;51.442;7.016;2023-03-20T02:22:22;11.10;1.00
1429;DHT22;708;51.442;7.016;2023-03-20T02:25:18;11.00;99.90
1429;DHT22;708;51.442;7.016;2023-03-20T02:28:17;11.10;99.90
1429;DHT22;708;51.442;7.016;2023-03-20T02:31:05;11.00;99.90
1429;DHT22;708;51.442;7.016;2023-03-20T02:34:04;10.90;99.90
1429;DHT22;708;51.442;7.016;2023-03-20T02:40:03;10.80;99.90
1429;DHT22;708;51.442;7.016;2023-03-20T02:42:39;10.70;1.00
1429;DHT22;708;51.442;7.016;2023-03-20T02:45:13;10.60;1.00
1429;DHT22;708;51.442;7.016;2023-03-20T02:47:48;10.60;1.00
1429;DHT22;708;51.442;7.016;2023-03-20T02:50:20;10.60;1.00
1429;DHT22;708;51.442;7.016;2023-03-20T02:52:56;10.60;1.00
1429;DHT22;708;51.442;7.016;2023-03-20T02:55:30;10.60;1.00
1429;DHT22;708;51.442;7.016;2023-03-20T02:58:04;10.70;1.00
1429;DHT22;708;51.442;7.016;2023-03-20T03:00:37;10.70;99.90
1429;DHT22;708;51.442;7.016;2023-03-20T03:03:10;10.70;99.90
1429;DHT22;708;51.442;7.016;2023-03-20T03:05:42;10.70;99.90
1429;DHT22;708;51.442;7.016;2023-03-20T03:08:12;10.70;99.90
1429;DHT22;708;51.442;7.016;2023-03-20T03:10:45;10.70;1.00
1429;DHT22;708;51.442;7.016;2023-03-20T03:13:17;10.80;99.90
1429;DHT22;708;51.442;7.016;2023-03-20T03:15:48;10.70;99.90
1429;DHT22;708;51.442;7.016;2023-03-20T03:18:19;10.70;99.90
1429;DHT22;708;51.442;7.016;2023-03-20T03:20:48;10.80;99.90
1429;DHT22;708;51.442;7.016;2023-03-20T03:23:20;10.80;97.80
1429;DHT22;708;51.442;7.016;2023-03-20T03:25:49;10.80;1.00
1429;DHT22;708;51.442;7.016;2023-03-20T03:28:23;10.80;1.00
1429;DHT22;708;51.442;7.016;2023-03-20T03:30:52;10.80;1.00
1429;DHT22;708;51.442;7.016;2023-03-20T03:33:22;10.80;1.00
1429;DHT22;708;51.442;7.016;2023-03-20T03:35:50;10.70;1.00
1429;DHT22;708;51.442;7.016;2023-03-20T03:38:27;10.70;99.90
1429;DHT22;708;51.442;7.016;2023-03-20T03:41:11;10.70;99.90
1429;DHT22;708;51.442;7.016;2023-03-20T03:43:45;10.60;1.00
1429;DHT22;708;51.442;7.016;2023-03-20T03:46:21;10.60;1.00
1429;DHT22;708;51.442;7.016;2023-03-20T03:48:53;10.60;1.00
1429;DHT22;708;51.442;7.016;2023-03-20T03:51:24;10.50;99.90
1429;DHT22;708;51.442;7.016;2023-03-20T03:53:54;10.50;99.90
1429;DHT22;708;51.442;7.016;2023-03-20T03:56:28;10.50;1.00
1429;DHT22;708;51.442;7.016;2023-03-20T03:58:58;10.50;1.00
1429;DHT22;708;51.442;7.016;2023-03-20T04:01:26;10.50;1.00
1429;DHT22;708;51.442;7.016;2023-03-20T04:03:57;10.60;1.00
1429;DHT22;708;51.442;7.016;2023-03-20T04:06:26;10.60;4.00
1429;DHT22;708;51.442;7.016;2023-03-20T04:08:54;10.70;1.00
1429;DHT22;708;51.442;7.016;2023-03-20T04:11:22;10.70;1.00
1429;DHT22;708;51.442;7.016;2023-03-20T04:13:51;10.70;1.00
1429;DHT22;708;51.442;7.016;2023-03-20T04:16:20;10.80;44.50
1429;DHT22;708;51.442;7.016;2023-03-20T04:18:47;10.70;26.70
1429;DHT22;708;51.442;7.016;2023-03-20T04:21:15;10.80;7.10
1429;DHT22;708;51.442;7.016;2023-03-20T04:23:42;10.90;1.00
1429;DHT22;708;51.442;7.016;2023-03-20T04:26:09;10.80;1.00
1429;DHT22;708;51.442;7.016;2023-03-20T04:28:36;10.80;1.00
1429;DHT22;708;51.442;7.016;2023-03-20T04:31:04;10.80;1.00
1429;DHT22;708;51.442;7.016;2023-03-20T04:33:31;10.70;1.40
1429;DHT22;708;51.442;7.016;2023-03-20T04:35:58;10.60;88.80
1429;DHT22;708;51.442;7.016;2023-03-20T04:38:25;10.50;99.90
1429;DHT22;708;51.442;7.016;2023-03-20T04:40:51;10.50;99.90
1429;DHT22;708;51.442;7.016;2023-03-20T04:43:18;10.40;99.90
1429;DHT22;708;51.442;7.016;2023-03-20T04:45:45;10.30;99.90
1429;DHT22;708;51.442;7.016;2023-03-20T04:48:13;10.30;99.90
1429;DHT22;708;51.442;7.016;2023-03-20T04:50:40;10.30;99.90
1429;DHT22;708;51.442;7.016;2023-03-20T04:53:07;10.30;99.90
1429;DHT22;708;51.442;7.016;2023-03-20T04:55:34;10.30;1.00
1429;DHT22;708;51.442;7.016;2023-03-20T04:58:00;10.40;1.00
1429;DHT22;708;51.442;7.016;2023-03-20T05:00:27;10.40;1.00
1429;DHT22;708;51.442;7.016;2023-03-20T05:02:54;10.40;99.90
1429;DHT22;708;51.442;7.016;2023-03-20T05:05:22;10.40;99.90
1429;DHT22;708;51.442;7.016;2023-03-20T05:07:49;10.40;99.90
1429;DHT22;708;51.442;7.016;2023-03-20T05:10:16;10.30;99.90
1429;DHT22;708;51.442;7.016;2023-03-20T05:12:43;10.20;1.00
1429;DHT22;708;51.442;7.016;2023-03-20T05:15:10;10.30;1.00
1429;DHT22;708;51.442;7.016;2023-03-20T05:17:37;10.20;1.00
1429;DHT22;708;51.442;7.016;2023-03-20T05:20:05;10.20;1.00
1429;DHT22;708;51.442;7.016;2023-03-20T05:22:34;10.00;1.00
1429;DHT22;708;51.442;7.016;2023-03-20T05:25:01;10.00;1.00
1429;DHT22;708;51.442;7.016;2023-03-20T05:27:28;10.00;1.00
1429;DHT22;708;51.442;7.016;2023-03-20T05:29:55;9.90;1.00
1429;DHT22;708;51.442;7.016;2023-03-20T05:32:22;9.90;1.00
1429;DHT22;708;51.442;7.016;2023-03-20T05:34:48;9.90;1.00
1429;DHT22;708;51.442;7.016;2023-03-20T05:37:15;9.80;1.00
1429;DHT22;708;51.442;7.016;2023-03-20T05:39:43;9.80;1.00
1429;DHT22;708;51.442;7.016;2023-03-20T05:42:10;9.80;1.00
1429;DHT22;708;51.442;7.016;2023-03-20T05:44:37;9.90;1.00
1429;DHT22;708;51.442;7.016;2023-03-20T05:47:04;9.80;1.00
1429;DHT22;708;51.442;7.016;2023-03-20T05:49:31;9.80;1.00
1429;DHT22;708;51.442;7.016;2023-03-20T05:52:04;9.80;1.00
1429;DHT22;708;51.442;7.016;2023-03-20T05:54:50;9.80;1.00
1429;DHT22;708;51.442;7.016;2023-03-20T05:57:24;9.80;1.00
1429;DHT22;708;51.442;7.016;2023-03-20T05:59:51;9.80;1.00
1429;DHT22;708;51.442;7.016;2023-03-20T06:02:18;9.90;99.90
1429;DHT22;708;51.442;7.016;2023-03-20T06:04:45;9.80;99.90
1429;DHT22;708;51.442;7.016;2023-03-20T06:07:11;9.80;99.90
1429;DHT22;708;51.442;7.016;2023-03-20T06:09:38;9.90;99.90
1429;DHT22;708;51.442;7.016;2023-03-20T06:12:06;9.90;99.90
1429;DHT22;708;51.442;7.016;2023-03-20T06:14:33;9.90;99.90
1429;DHT22;708;51.442;7.016;2023-03-20T06:17:00;9.90;99.90
1429;DHT22;708;51.442;7.016;2023-03-20T06:19:27;9.90;99.90
1429;DHT22;708;51.442;7.016;2023-03-20T06:21:53;9.90;99.90
1429;DHT22;708;51.442;7.016;2023-03-20T06:24:20;9.90;99.90
1429;DHT22;708;51.442;7.016;2023-03-20T06:26:47;9.90;99.90
1429;DHT22;708;51.442;7.016;2023-03-20T06:29:15;10.00;99.90
1429;DHT22;708;51.442;7.016;2023-03-20T06:31:42;10.00;99.90
1429;DHT22;708;51.442;7.016;2023-03-20T06:34:09;10.10;99.90
1429;DHT22;708;51.442;7.016;2023-03-20T06:36:36;10.00;99.90
1429;DHT22;708;51.442;7.016;2023-03-20T06:39:03;10.10;99.90
1429;DHT22;708;51.442;7.016;2023-03-20T06:41:30;10.20;96.40
1429;DHT22;708;51.442;7.016;2023-03-20T06:43:56;10.20;1.00
1429;DHT22;708;51.442;7.016;2023-03-20T06:46:24;10.20;1.00
1429;DHT22;708;51.442;7.016;2023-03-20T06:48:51;10.20;99.90
1429;DHT22;708;51.442;7.016;2023-03-20T06:51:19;10.30;99.90
1429;DHT22;708;51.442;7.016;2023-03-20T06:53:45;10.30;99.90
1429;DHT22;708;51.442;7.016;2023-03-20T06:56:12;10.40;1.00
1429;DHT22;708;51.442;7.016;2023-03-20T06:58:39;10.50;99.90
1429;DHT22;708;51.442;7.016;2023-03-20T07:01:08;10.50;1.00
1429;DHT22;708;51.442;7.016;2023-03-20T07:03:36;10.60;99.90
1429;DHT22;708;51.442;7.016;2023-03-20T07:06:05;10.70;1.00
1429;DHT22;708;51.442;7.016;2023-03-20T07:08:32;10.80;1.00
1429;DHT22;708;51.442;7.016;2023-03-20T07:10:59;10.90;1.00
1429;DHT22;708;51.442;7.016;2023-03-20T07:13:26;11.00;99.90
1429;DHT22;708;51.442;7.016;2023-03-20T07:15:54;11.10;99.90
1429;DHT22;708;51.442;7.016;2023-03-20T07:18:24;11.20;49.50
1429;DHT22;708;51.442;7.016;2023-03-20T07:20:56;11.30;1.00
1429;DHT22;708;51.442;7.016;2023-03-20T07:23:24;11.30;99.90
1429;DHT22;708;51.442;7.016;2023-03-20T07:25:50;11.40;99.90
1429;DHT22;708;51.442;7.016;2023-03-20T07:28:17;11.30;99.90
1429;DHT22;708;51.442;7.016;2023-03-20T07:30:44;11.30;99.90
1429;DHT22;708;51.442;7.016;2023-03-20T07:33:11;11.40;1.00
1429;DHT22;708;51.442;7.016;2023-03-20T07:35:37;11.40;1.00
1429;DHT22;708;51.442;7.016;2023-03-20T07:38:06;11.50;1.00
1429;DHT22;708;51.442;7.016;2023-03-20T07:40:32;11.50;1.00
1429;DHT22;708;51.442;7.016;2023-03-20T07:42:59;11.60;1.00
1429;DHT22;708;51.442;7.016;2023-03-20T07:45:26;11.70;99.90
1429;DHT22;708;51.442;7.016;2023-03-20T07:47:53;11.80;99.90
1429;DHT22;708;51.442;7.016;2023-03-20T07:50:20;12.00;99.90
1429;DHT22;708;51.442;7.016;2023-03-20T07:52:47;12.10;99.90
1429;DHT22;708;51.442;7.016;2023-03-20T07:55:16;12.20;99.90
1429;DHT22;708;51.442;7.016;2023-03-20T07:57:43;12.30;46.50
1429;DHT22;708;51.442;7.016;2023-03-20T08:00:16;12.40;2.40
1429;DHT22;708;51.442;7.016;2023-03-20T08:02:55;12.50;1.00
1429;DHT22;708;51.442;7.016;2023-03-20T08:05:30;12.70;1.00
1429;DHT22;708;51.442;7.016;2023-03-20T08:07:56;12.90;1.00
1429;DHT22;708;51.442;7.016;2023-03-20T08:10:35;13.00;1.00
1429;DHT22;708;51.442;7.016;2023-03-20T08:13:18;13.30;1.00
1429;DHT22;708;51.442;7.016;2023-03-20T08:15:53;13.70;1.00
1429;DHT22;708;51.442;7.016;2023-03-20T08:18:19;14.20;99.90
1429;DHT22;708;51.442;7.016;2023-03-20T08:20:46;14.50;99.90
1429;DHT22;708;51.442;7.016;2023-03-20T08:23:14;14.60;99.90
1429;DHT22;708;51.442;7.016;2023-03-20T08:25:46;14.50;99.90
1429;DHT22;708;51.442;7.016;2023-03-20T08:28:12;14.30;99.90
1429;DHT22;708;51.442;7.016;2023-03-20T08:30:39;14.20;99.90
1429;DHT22;708;51.442;7.016;2023-03-20T08:33:06;14.10;99.90
1429;DHT22;708;51.442;7.016;2023-03-20T08:35:33;14.00;99.90
1429;DHT22;708;51.442;7.016;2023-03-20T08:38:00;14.00;99.90
1429;DHT22;708;51.442;7.016;2023-03-20T08:40:27;14.00;99.90
1429;DHT22;708;51.442;7.016;2023-03-20T08:42:56;13.90;99.90
1429;DHT22;708;51.442;7.016;2023-03-20T08:45:24;13.90;99.90
1429;DHT22;708;51.442;7.016;2023-03-20T08:47:51;14.00;99.90
1429;DHT22;708;51.442;7.016;2023-03-20T08:50:18;14.10;99.90
1429;DHT22;708;51.442;7.016;2023-03-20T08:52:44;14.20;99.90
1429;DHT22;708;51.442;7.016;2023-03-20T08:55:12;14.10;99.90
1429;DHT22;708;51.442;7.016;2023-03-20T08:57:40;14.20;99.90
1429;DHT22;708;51.442;7.016;2023-03-20T09:00:11;14.20;99.90
1429;DHT22;708;51.442;7.016;2023-03-20T09:02:38;14.20;99.90
1429;DHT22;708;51.442;7.016;2023-03-20T09:05:06;14.20;99.90
1429;DHT22;708;51.442;7.016;2023-03-20T09:07:33;14.20;99.90
1429;DHT22;708;51.442;7.016;2023-03-20T09:10:00;14.20;99.90
1429;DHT22;708;51.442;7.016;2023-03-20T09:12:26;14.10;99.90
1429;DHT22;708;51.442;7.016;2023-03-20T09:14:55;14.20;99.90
1429;DHT22;708;51.442;7.016;2023-03-20T09:17:24;14.20;99.90
1429;DHT22;708;51.442;7.016;2023-03-20T09:19:51;14.00;99.90
1429;DHT22;708;51.442;7.016;2023-03-20T09:22:18;14.00;99.90
1429;DHT22;708;51.442;7.016;2023-03-20T09:24:45;14.00;99.90
1429;DHT22;708;51.442;7.016;2023-03-20T09:27:12;13.90;99.90
1429;DHT22;708;51.442;7.016;2023-03-20T09:29:39;13.90;99.90
1429;DHT22;708;51.442;7.016;2023-03-20T09:32:06;13.90;99.90
1429;DHT22;708;51.442;7.016;2023-03-20T09:34:36;13.90;99.90
1429;DHT22;708;51.442;7.016;2023-03-20T09:37:02;13.80;99.90
1429;DHT22;708;51.442;7.016;2023-03-20T09:39:29;13.80;99.90
1429;DHT22;708;51.442;7.016;2023-03-20T09:41:59;13.80;99.90
1429;DHT22;708;51.442;7.016;2023-03-20T09:44:44;13.80;99.90
1429;DHT22;708;51.442;7.016;2023-03-20T09:47:17;13.80;99.90
1429;DHT22;708;51.442;7.016;2023-03-20T09:50:10;13.80;99.90
1429;DHT22;708;51.442;7.016;2023-03-20T09:52:42;13.60;99.90
1429;DHT22;708;51.442;7.016;2023-03-20T09:55:13;13.60;99.90
1429;DHT22;708;51.442;7.016;2023-03-20T09:57:42;13.60;99.90
1429;DHT22;708;51.442;7.016;2023-03-20T10:00:13;13.60;99.90
1429;DHT22;708;51.442;7.016;2023-03-20T10:02:47;13.50;99.90
1429;DHT22;708;51.442;7.016;2023-03-20T10:05:20;13.50;99.90
1429;DHT22;708;51.442;7.016;2023-03-20T10:07:49;13.40;99.90
1429;DHT22;708;51.442;7.016;2023-03-20T10:10:17;13.40;99.90
1429;DHT22;708;51.442;7.016;2023-03-20T10:12:52;13.50;99.90
1429;DHT22;708;51.442;7.016;2023-03-20T10:15:33;13.60;99.90
1429;DHT22;708;51.442;7.016;2023-03-20T10:18:09;13.60;99.90
1429;DHT22;708;51.442;7.016;2023-03-20T10:20:43;13.70;99.90
1429;DHT22;708;51.442;7.016;2023-03-20T10:23:18;13.80;99.90
1429;DHT22;708;51.442;7.016;2023-03-20T10:25:51;13.80;99.90
1429;DHT22;708;51.442;7.016;2023-03-20T10:28:21;13.80;99.90
1429;DHT22;708;51.442;7.016;2023-03-20T10:31:02;13.80;99.90
1429;DHT22;708;51.442;7.016;2023-03-20T10:33:44;14.10;99.90
1429;DHT22;708;51.442;7.016;2023-03-20T10:36:24;14.30;99.90
1429;DHT22;708;51.442;7.016;2023-03-20T10:38:58;14.50;99.90
1429;DHT22;708;51.442;7.016;2023-03-20T10:41:29;14.60;99.90
1429;DHT22;708;51.442;7.016;2023-03-20T10:43:58;14.80;99.90
1429;DHT22;708;51.442;7.016;2023-03-20T10:46:27;14.80;99.90
1429;DHT22;708;51.442;7.016;2023-03-20T10:48:58;14.80;99.90
1429;DHT22;708;51.442;7.016;2023-03-20T10:51:35;14.80;99.90
1429;DHT22;708;51.442;7.016;2023-03-20T10:54:06;14.80;99.90
1429;DHT22;708;51.442;7.016;2023-03-20T10:56:43;14.90;99.90
1429;DHT22;708;51.442;7.016;2023-03-20T10:59:19;15.00;99.90
1429;DHT22;708;51.442;7.016;2023-03-20T11:01:47;15.10;99.90
1429;DHT22;708;51.442;7.016;2023-03-20T11:04:14;15.20;99.90
1429;DHT22;708;51.442;7.016;2023-03-20T11:06:46;15.10;99.90
1429;DHT22;708;51.442;7.016;2023-03-20T11:09:18;15.00;99.90
1429;DHT22;708;51.442;7.016;2023-03-20T11:11:48;14.90;99.90
1429;DHT22;708;51.442;7.016;2023-03-20T11:14:19;14.90;99.90
1429;DHT22;708;51.442;7.016;2023-03-20T11:16:48;14.80;99.90
1429;DHT22;708;51.442;7.016;2023-03-20T11:19:17;14.90;99.90
1429;DHT22;708;51.442;7.016;2023-03-20T11:21:47;15.00;99.90
1429;DHT22;708;51.442;7.016;2023-03-20T11:24:23;15.10;99.90
1429;DHT22;708;51.442;7.016;2023-03-20T11:26:51;15.10;99.90
1429;DHT22;708;51.442;7.016;2023-03-20T11:29:23;15.20;99.90
1429;DHT22;708;51.442;7.016;2023-03-20T11:31:51;15.20;99.90
1429;DHT22;708;51.442;7.016;2023-03-20T11:34:23;15.10;99.90
1429;DHT22;708;51.442;7.016;2023-03-20T11:36:57;15.00;99.90
1429;DHT22;708;51.442;7.016;2023-03-20T11:39:26;14.90;99.90
1429;DHT22;708;51.442;7.016;2023-03-20T11:41:55;14.80;99.90
1429;DHT22;708;51.442;7.016;2023-03-20T11:44:24;14.70;99.90
1429;DHT22;708;51.442;7.016;2023-03-20T11:46:55;14.60;99.90
1429;DHT22;708;51.442;7.016;2023-03-20T11:49:24;14.50;99.90
1429;DHT22;708;51.442;7.016;2023-03-20T11:51:53;14.60;99.90
1429;DHT22;708;51.442;7.016;2023-03-20T11:54:24;14.70;99.90
1429;DHT22;708;51.442;7.016;2023-03-20T11:56:53;14.80;99.90
1429;DHT22;708;51.442;7.016;2023-03-20T11:59:21;14.90;99.90
1429;DHT22;708;51.442;7.016;2023-03-20T12:01:53;15.00;99.90
1429;DHT22;708;51.442;7.016;2023-03-20T12:04:26;14.90;99.90
1429;DHT22;708;51.442;7.016;2023-03-20T12:06:56;14.90;99.90
1429;DHT22;708;51.442;7.016;2023-03-20T12:09:32;14.80;99.90
1429;DHT22;708;51.442;7.016;2023-03-20T12:12:03;14.70;99.90
1429;DHT22;708;51.442;7.016;2023-03-20T12:14:37;14.50;99.90
1429;DHT22;708;51.442;7.016;2023-03-20T12:17:24;14.20;99.90
1429;DHT22;708;51.442;7.016;2023-03-20T12:19:57;14.20;99.90
1429;DHT22;708;51.442;7.016;2023-03-20T12:22:31;14.20;99.90
1429;DHT22;708;51.442;7.016;2023-03-20T12:25:07;14.30;99.90
1429;DHT22;708;51.442;7.016;2023-03-20T12:27:44;14.20;99.90
1429;DHT22;708;51.442;7.016;2023-03-20T12:30:16;14.30;99.90
1429;DHT22;708;51.442;7.016;2023-03-20T12:32:47;14.20;99.90
1429;DHT22;708;51.442;7.016;2023-03-20T12:35:21;14.20;99.90
1429;DHT22;708;51.442;7.016;2023-03-20T12:37:50;14.40;99.90
1429;DHT22;708;51.442;7.016;2023-03-20T12:40:26;14.50;99.90
1429;DHT22;708;51.442;7.016;2023-03-20T12:43:02;14.40;99.90
1429;DHT22;708;51.442;7.016;2023-03-20T12:45:33;14.40;99.90
1429;DHT22;708;51.442;7.016;2023-03-20T12:48:14;14.50;99.90
1429;DHT22;708;51.442;7.016;2023-03-20T12:50:47;14.50;99.90
1429;DHT22;708;51.442;7.016;2023-03-20T12:53:31;14.60;99.90
1429;DHT22;708;51.442;7.016;2023-03-20T12:56:11;14.80;99.90
1429;DHT22;708;51.442;7.016;2023-03-20T12:58:43;14.80;99.90
1429;DHT22;708;51.442;7.016;2023-03-20T13:01:17;14.90;99.90
1429;DHT22;708;51.442;7.016;2023-03-20T13:04:00;14.90;99.90
1429;DHT22;708;51.442;7.016;2023-03-20T13:06:38;14.80;99.90
1429;DHT22;708;51.442;7.016;2023-03-20T13:12:13;14.60;99.90
1429;DHT22;708;51.442;7.016;2023-03-20T13:14:49;14.40;99.90
1429;DHT22;708;51.442;7.016;2023-03-20T13:17:22;14.40;99.90
1429;DHT22;708;51.442;7.016;2023-03-20T13:19:58;14.30;99.90
1429;DHT22;708;51.442;7.016;2023-03-20T13:22:33;14.30;99.90
1429;DHT22;708;51.442;7.016;2023-03-20T13:25:09;14.10;99.90
1429;DHT22;708;51.442;7.016;2023-03-20T13:27:48;13.90;99.90
1429;DHT22;708;51.442;7.016;2023-03-20T13:30:20;13.90;99.90
1429;DHT22;708;51.442;7.016;2023-03-20T13:32:56;13.90;99.90
1429;DHT22;708;51.442;7.016;2023-03-20T13:35:33;14.00;99.90
1429;DHT22;708;51.442;7.016;2023-03-20T13:38:09;14.00;99.90
1429;DHT22;708;51.442;7.016;2023-03-20T13:40:39;14.00;99.90
1429;DHT22;708;51.442;7.016;2023-03-20T13:43:18;14.00;99.90
1429;DHT22;708;51.442;7.016;2023-03-20T13:45:49;14.00;99.90
1429;DHT22;708;51.442;7.016;2023-03-20T13:48:25;13.90;99.90
1429;DHT22;708;51.442;7.016;2023-03-20T13:50:56;13.70;99.90
1429;DHT22;708;51.442;7.016;2023-03-20T13:53:32;13.60;99.90
1429;DHT22;708;51.442;7.016;2023-03-20T13:56:06;13.60;99.90
1429;DHT22;708;51.442;7.016;2023-03-20T13:58:53;13.60;99.90
1429;DHT22;708;51.442;7.016;2023-03-20T14:01:24;13.50;99.90
1429;DHT22;708;51.442;7.016;2023-03-20T14:03:54;13.40;99.90
1429;DHT22;708;51.442;7.016;2023-03-20T14:06:48;13.20;99.90
1429;DHT22;708;51.442;7.016;2023-03-20T14:09:30;13.20;99.90
1429;DHT22;708;51.442;7.016;2023-03-20T14:12:06;13.40;99.90
1429;DHT22;708;51.442;7.016;2023-03-20T14:14:41;13.50;99.90
1429;DHT22;708;51.442;7.016;2023-03-20T14:17:15;13.70;99.90
1429;DHT22;708;51.442;7.016;2023-03-20T14:19:44;13.80;99.90
1429;DHT22;708;51.442;7.016;2023-03-20T14:22:16;14.00;99.90
1429;DHT22;708;51.442;7.016;2023-03-20T14:24:50;14.00;99.90
1429;DHT22;708;51.442;7.016;2023-03-20T14:27:20;13.90;99.90
1429;DHT22;708;51.442;7.016;2023-03-20T14:29:48;13.90;99.90
1429;DHT22;708;51.442;7.016;2023-03-20T14:32:33;14.00;99.90
1429;DHT22;708;51.442;7.016;2023-03-20T14:35:21;14.10;99.90
1429;DHT22;708;51.442;7.016;2023-03-20T14:38:07;14.10;99.90
1429;DHT22;708;51.442;7.016;2023-03-20T14:40:39;14.20;99.90
1429;DHT22;708;51.442;7.016;2023-03-20T14:43:16;14.20;99.90
1429;DHT22;708;51.442;7.016;2023-03-20T14:45:52;13.90;99.90
1429;DHT22;708;51.442;7.016;2023-03-20T14:48:27;13.90;99.90
1429;DHT22;708;51.442;7.016;2023-03-20T14:51:06;13.80;99.90
1429;DHT22;708;51.442;7.016;2023-03-20T14:53:34;13.80;99.90
1429;DHT22;708;51.442;7.016;2023-03-20T14:56:07;13.90;99.90
1429;DHT22;708;51.442;7.016;2023-03-20T14:58:50;13.90;99.90
1429;DHT22;708;51.442;7.016;2023-03-20T15:04:26;14.00;99.90
1429;DHT22;708;51.442;7.016;2023-03-20T15:06:57;13.90;99.90
1429;DHT22;708;51.442;7.016;2023-03-20T15:09:26;13.80;99.90
1429;DHT22;708;51.442;7.016;2023-03-20T15:11:54;13.90;99.90
1429;DHT22;708;51.442;7.016;2023-03-20T15:14:34;13.90;99.90
1429;DHT22;708;51.442;7.016;2023-03-20T15:17:16;13.90;99.90
1429;DHT22;708;51.442;7.016;2023-03-20T15:19:43;13.80;99.90
1429;DHT22;708;51.442;7.016;2023-03-20T15:22:15;13.70;99.90
1429;DHT22;708;51.442;7.016;2023-03-20T15:24:50;13.80;99.90
1429;DHT22;708;51.442;7.016;2023-03-20T15:27:17;13.80;99.90
1429;DHT22;708;51.442;7.016;2023-03-20T15:29:46;13.80;99.90
1429;DHT22;708;51.442;7.016;2023-03-20T15:32:17;13.70;99.90
1429;DHT22;708;51.442;7.016;2023-03-20T15:34:46;13.60;99.90
1429;DHT22;708;51.442;7.016;2023-03-20T15:37:15;13.50;99.90
1429;DHT22;708;51.442;7.016;2023-03-20T15:39:45;13.50;99.90
1429;DHT22;708;51.442;7.016;2023-03-20T15:42:14;13.30;99.90
1429;DHT22;708;51.442;7.016;2023-03-20T15:44:43;13.20;99.90
1429;DHT22;708;51.442;7.016;2023-03-20T15:47:13;13.20;99.90
1429;DHT22;708;51.442;7.016;2023-03-20T15:49:49;13.10;99.90
1429;DHT22;708;51.442;7.016;2023-03-20T15:52:23;13.10;99.90
1429;DHT22;708;51.442;7.016;2023-03-20T15:54:51;13.10;99.90
1429;DHT22;708;51.442;7.016;2023-03-20T15:57:20;13.10;99.90
1429;DHT22;708;51.442;7.016;2023-03-20T15:59:50;13.10;99.90
1429;DHT22;708;51.442;7.016;2023-03-20T16:02:17;13.10;99.90
1429;DHT22;708;51.442;7.016;2023-03-20T16:04:47;13.00;99.90
1429;DHT22;708;51.442;7.016;2023-03-20T16:07:20;13.10;99.90
1429;DHT22;708;51.442;7.016;2023-03-20T16:09:49;13.10;99.90
1429;DHT22;708;51.442;7.016;2023-03-20T16:12:17;13.10;99.90
1429;DHT22;708;51.442;7.016;2023-03-20T16:14:46;13.10;99.90
1429;DHT22;708;51.442;7.016;2023-03-20T16:17:14;13.00;99.90
1429;DHT22;708;51.442;7.016;2023-03-20T16:19:42;12.90;99.90
1429;DHT22;708;51.442;7.016;2023-03-20T16:22:19;12.90;99.90
1429;DHT22;708;51.442;7.016;2023-03-20T16:24:49;12.90;1.00
1429;DHT22;708;51.442;7.016;2023-03-20T16:27:23;12.80;1.00
1429;DHT22;708;51.442;7.016;2023-03-20T16:29:52;12.80;1.00
1429;DHT22;708;51.442;7.016;2023-03-20T16:32:28;12.80;1.00
1429;DHT22;708;51.442;7.016;2023-03-20T16:34:58;12.80;1.00
1429;DHT22;708;51.442;7.016;2023-03-20T16:37:28;12.60;1.00
1429;DHT22;708;51.442;7.016;2023-03-20T16:40:09;12.50;99.90
1429;DHT22;708;51.442;7.016;2023-03-20T16:42:37;12.40;99.90
1429;DHT22;708;51.442;7.016;2023-03-20T16:45:05;12.40;99.90
1429;DHT22;708;51.442;7.016;2023-03-20T16:47:39;12.40;99.90
1429;DHT22;708;51.442;7.016;2023-03-20T16:50:14;12.50;99.90
1429;DHT22;708;51.442;7.016;2023-03-20T16:52:47;12.50;99.90
1429;DHT22;708;51.442;7.016;2023-03-20T16:55:18;12.50;1.00
1429;DHT22;708;51.442;7.016;2023-03-20T16:57:50;12.40;1.00
1429;DHT22;708;51.442;7.016;2023-03-20T17:00:21;12.40;99.90